createdAt,value
2017-06-26T00:00:13.333Z,18.9
2017-06-26T00:00:33.891Z,18.9
2017-06-26T00:00:54.411Z,18.9
2017-06-26T00:01:14.949Z,18.9
2017-06-26T00:01:35.480Z,18.9
2017-06-26T00:01:56.003Z,18.8
2017-06-26T00:02:16.549Z,18.9
2017-06-26T00:02:37.112Z,18.8
2017-06-26T00:02:57.664Z,18.9
2017-06-26T00:03:18.176Z,18.8
2017-06-26T00:03:39.508Z,18.8
2017-06-26T00:04:00.612Z,18.8
2017-06-26T00:04:23.028Z,18.9
2017-06-26T00:04:43.555Z,18.9
2017-06-26T00:05:05.024Z,18.8
2017-06-26T00:05:25.543Z,18.8
2017-06-26T00:05:46.066Z,18.9
2017-06-26T00:06:06.593Z,18.8
2017-06-26T00:06:27.159Z,18.8
2017-06-26T00:06:47.687Z,18.8
2017-06-26T00:07:09.027Z,18.8
2017-06-26T00:07:29.577Z,18.8
2017-06-26T00:07:50.135Z,18.8
2017-06-26T00:08:10.667Z,18.8
2017-06-26T00:08:31.209Z,18.8
2017-06-26T00:08:51.731Z,18.8
2017-06-26T00:09:12.252Z,18.8
2017-06-26T00:09:33.562Z,18.8
2017-06-26T00:09:54.094Z,18.8
2017-06-26T00:10:14.646Z,18.8
2017-06-26T00:10:36.067Z,18.8
2017-06-26T00:10:57.492Z,18.8
2017-06-26T00:11:18.020Z,18.8
2017-06-26T00:11:38.547Z,18.7
2017-06-26T00:12:00.042Z,18.7
2017-06-26T00:12:20.572Z,18.7
2017-06-26T00:12:42.556Z,18.7
2017-06-26T00:13:03.076Z,18.8
2017-06-26T00:13:23.629Z,18.7
2017-06-26T00:13:44.160Z,18.7
2017-06-26T00:14:04.673Z,18.7
2017-06-26T00:14:25.194Z,18.7
2017-06-26T00:14:46.642Z,18.7
2017-06-26T00:15:07.161Z,18.7
2017-06-26T00:15:27.685Z,18.6
2017-06-26T00:15:48.235Z,18.6
2017-06-26T00:16:08.783Z,18.5
2017-06-26T00:16:30.055Z,18.6
2017-06-26T00:16:51.534Z,18.6
2017-06-26T00:17:12.542Z,18.6
2017-06-26T00:17:34.046Z,18.5
2017-06-26T00:17:54.609Z,18.5
2017-06-26T00:18:15.127Z,18.5
2017-06-26T00:18:35.651Z,18.5
2017-06-26T00:18:56.180Z,18.6
2017-06-26T00:19:16.729Z,18.6
2017-06-26T00:19:37.240Z,18.6
2017-06-26T00:19:59.053Z,18.5
2017-06-26T00:20:19.583Z,18.6
2017-06-26T00:20:40.145Z,18.5
2017-06-26T00:21:00.660Z,18.6
2017-06-26T00:21:21.186Z,18.5
2017-06-26T00:21:43.511Z,18.5
2017-06-26T00:22:04.036Z,18.5
2017-06-26T00:22:26.571Z,18.5
2017-06-26T00:22:47.088Z,18.5
2017-06-26T00:23:07.607Z,18.6
2017-06-26T00:23:29.083Z,18.5
2017-06-26T00:23:50.547Z,18.6
2017-06-26T00:24:11.094Z,18.5
2017-06-26T00:24:31.641Z,18.6
2017-06-26T00:24:52.170Z,18.5
2017-06-26T00:25:13.542Z,18.5
2017-06-26T00:25:35.558Z,18.5
2017-06-26T00:25:57.044Z,18.5
2017-06-26T00:26:17.562Z,18.6
2017-06-26T00:26:38.070Z,18.4
2017-06-26T00:26:58.599Z,18.4
2017-06-26T00:27:19.123Z,18.5
2017-06-26T00:27:39.637Z,18.4
2017-06-26T00:28:00.169Z,18.4
2017-06-26T00:28:20.691Z,18.4
2017-06-26T00:28:42.030Z,18.3
2017-06-26T00:29:03.051Z,18.3
2017-06-26T00:29:23.595Z,18.3
2017-06-26T00:29:46.009Z,18.2
2017-06-26T00:30:07.508Z,18.3
2017-06-26T00:30:28.558Z,18.3
2017-06-26T00:30:49.081Z,18.2
2017-06-26T00:31:09.606Z,18.3
2017-06-26T00:31:30.130Z,18.2
2017-06-26T00:31:50.658Z,18.2
2017-06-26T00:32:12.012Z,18.3
2017-06-26T00:32:32.532Z,18.2
2017-06-26T00:32:53.051Z,18.2
2017-06-26T00:33:13.572Z,18.2
2017-06-26T00:33:34.096Z,18.2
2017-06-26T00:33:54.607Z,18.2
2017-06-26T00:34:15.110Z,18.2
2017-06-26T00:34:35.628Z,18.2
2017-06-26T00:34:56.166Z,18.3
2017-06-26T00:35:16.682Z,18.2
2017-06-26T00:35:37.234Z,18.1
2017-06-26T00:35:58.515Z,18.3
2017-06-26T00:36:19.050Z,18.2
2017-06-26T00:36:39.570Z,18.2
2017-06-26T00:37:01.036Z,18.2
2017-06-26T00:37:21.560Z,18.2
2017-06-26T00:37:42.108Z,18.3
2017-06-26T00:38:02.622Z,18.2
2017-06-26T00:38:23.138Z,18.3
2017-06-26T00:38:43.672Z,18.1
2017-06-26T00:39:04.187Z,18.1
2017-06-26T00:39:25.558Z,18.2
2017-06-26T00:39:46.073Z,18.1
2017-06-26T00:40:06.624Z,18.1
2017-06-26T00:40:28.057Z,18.2
2017-06-26T00:40:50.060Z,18.1
2017-06-26T00:41:10.588Z,18.1
2017-06-26T00:41:31.117Z,18.2
2017-06-26T00:41:51.640Z,18.3
2017-06-26T00:42:12.164Z,18.2
2017-06-26T00:42:32.678Z,18.2
2017-06-26T00:42:53.210Z,18.2
2017-06-26T00:43:13.733Z,18.2
2017-06-26T00:43:35.034Z,18.2
2017-06-26T00:43:56.527Z,18.1
2017-06-26T00:44:17.040Z,18.2
2017-06-26T00:44:37.557Z,18.1
2017-06-26T00:44:58.097Z,18.2
2017-06-26T00:45:18.648Z,18.1
2017-06-26T00:45:39.179Z,18.2
2017-06-26T00:45:59.710Z,18.1
2017-06-26T00:46:20.224Z,18.1
2017-06-26T00:46:40.745Z,18.1
2017-06-26T00:47:01.255Z,18.1
2017-06-26T00:47:22.579Z,18.1
2017-06-26T00:47:44.070Z,18.1
2017-06-26T00:48:04.589Z,18.1
2017-06-26T00:48:26.076Z,18
2017-06-26T00:48:46.600Z,18.1
2017-06-26T00:49:07.136Z,18
2017-06-26T00:49:27.646Z,18.1
2017-06-26T00:49:48.282Z,18.1
2017-06-26T00:50:09.024Z,18
2017-06-26T00:50:29.716Z,18
2017-06-26T00:50:50.391Z,18
2017-06-26T00:51:11.563Z,18
2017-06-26T00:51:32.111Z,17.9
2017-06-26T00:51:52.621Z,18
2017-06-26T00:52:14.049Z,17.9
2017-06-26T00:52:34.599Z,17.9
2017-06-26T00:52:55.113Z,17.9
2017-06-26T00:53:15.629Z,17.9
2017-06-26T00:53:36.138Z,17.8
2017-06-26T00:53:56.655Z,17.8
2017-06-26T00:54:17.163Z,17.8
2017-06-26T00:54:37.714Z,17.8
2017-06-26T00:54:58.238Z,17.8
2017-06-26T00:55:19.529Z,17.8
2017-06-26T00:55:40.078Z,17.8
2017-06-26T00:56:00.602Z,17.8
2017-06-26T00:56:21.603Z,17.8
2017-06-26T00:56:43.081Z,17.7
2017-06-26T00:57:04.526Z,17.7
2017-06-26T00:57:25.065Z,17.8
2017-06-26T00:57:47.104Z,17.7
2017-06-26T00:58:07.636Z,17.7
2017-06-26T00:58:29.030Z,17.7
2017-06-26T00:58:50.551Z,17.7
2017-06-26T00:59:11.077Z,17.6
2017-06-26T00:59:31.585Z,17.6
2017-06-26T00:59:52.105Z,17.6
2017-06-26T01:00:15.034Z,17.7
2017-06-26T01:00:35.566Z,17.6
2017-06-26T01:00:56.086Z,17.6
2017-06-26T01:01:16.606Z,17.7
2017-06-26T01:01:37.137Z,17.7
2017-06-26T01:01:57.675Z,17.6
2017-06-26T01:02:18.213Z,17.6
2017-06-26T01:02:38.732Z,17.6
2017-06-26T01:02:59.255Z,17.7
2017-06-26T01:03:19.766Z,17.6
2017-06-26T01:03:40.291Z,17.6
2017-06-26T01:04:00.808Z,17.6
2017-06-26T01:04:22.109Z,17.6
2017-06-26T01:04:42.623Z,17.6
2017-06-26T01:05:03.137Z,17.6
2017-06-26T01:05:23.657Z,17.6
2017-06-26T01:05:47.072Z,17.7
2017-06-26T01:06:08.560Z,17.7
2017-06-26T01:06:29.605Z,17.7
2017-06-26T01:06:50.108Z,17.6
2017-06-26T01:07:10.649Z,17.6
2017-06-26T01:07:31.178Z,17.6
2017-06-26T01:07:51.687Z,17.6
2017-06-26T01:08:12.212Z,17.6
2017-06-26T01:08:33.538Z,17.6
2017-06-26T01:08:54.079Z,17.6
2017-06-26T01:09:14.613Z,17.6
2017-06-26T01:09:35.133Z,17.6
2017-06-26T01:09:55.649Z,17.6
2017-06-26T01:10:16.204Z,17.5
2017-06-26T01:10:36.743Z,17.5
2017-06-26T01:10:58.071Z,17.5
2017-06-26T01:11:18.587Z,17.6
2017-06-26T01:11:39.106Z,17.6
2017-06-26T01:11:59.621Z,17.6
2017-06-26T01:12:20.143Z,17.6
2017-06-26T01:12:40.669Z,17.6
2017-06-26T01:13:02.059Z,17.6
2017-06-26T01:13:22.572Z,17.7
2017-06-26T01:13:43.081Z,17.6
2017-06-26T01:14:03.590Z,17.6
2017-06-26T01:14:24.113Z,17.6
2017-06-26T01:14:44.632Z,17.6
2017-06-26T01:15:05.224Z,17.6
2017-06-26T01:15:25.789Z,17.5
2017-06-26T01:15:46.304Z,17.5
2017-06-26T01:16:06.815Z,17.6
2017-06-26T01:16:28.091Z,17.5
2017-06-26T01:16:48.620Z,17.6
2017-06-26T01:17:09.127Z,17.6
2017-06-26T01:17:29.655Z,17.6
2017-06-26T01:17:50.170Z,17.6
2017-06-26T01:18:11.584Z,17.6
2017-06-26T01:18:32.114Z,17.6
2017-06-26T01:18:53.588Z,17.5
2017-06-26T01:19:14.106Z,17.6
2017-06-26T01:19:34.618Z,17.6
2017-06-26T01:19:55.126Z,17.6
2017-06-26T01:20:15.629Z,17.6
2017-06-26T01:20:36.154Z,17.6
2017-06-26T01:20:56.688Z,17.6
2017-06-26T01:21:17.215Z,17.6
2017-06-26T01:21:44.673Z,17.6
2017-06-26T01:22:05.193Z,17.6
2017-06-26T01:22:25.720Z,17.6
2017-06-26T01:22:46.284Z,17.5
2017-06-26T01:23:07.607Z,17.6
2017-06-26T01:23:28.123Z,17.6
2017-06-26T01:23:48.638Z,17.6
2017-06-26T01:24:10.089Z,17.6
2017-06-26T01:24:30.609Z,17.5
2017-06-26T01:24:51.129Z,17.6
2017-06-26T01:25:11.665Z,17.6
2017-06-26T01:25:33.130Z,17.6
2017-06-26T01:25:54.581Z,17.6
2017-06-26T01:26:16.548Z,17.5
2017-06-26T01:26:37.075Z,17.5
2017-06-26T01:26:58.202Z,17.5
2017-06-26T01:27:19.554Z,17.6
2017-06-26T01:27:40.599Z,17.5
2017-06-26T01:28:01.118Z,17.6
2017-06-26T01:28:22.600Z,17.6
2017-06-26T01:28:43.119Z,17.6
2017-06-26T01:29:03.634Z,17.6
2017-06-26T01:29:24.150Z,17.6
2017-06-26T01:29:44.655Z,17.5
2017-06-26T01:30:06.130Z,17.5
2017-06-26T01:30:28.065Z,17.6
2017-06-26T01:30:50.062Z,17.6
2017-06-26T01:31:10.581Z,17.5
2017-06-26T01:31:32.127Z,17.5
2017-06-26T01:31:52.654Z,17.6
2017-06-26T01:32:13.176Z,17.6
2017-06-26T01:32:34.587Z,17.6
2017-06-26T01:32:55.612Z,17.6
2017-06-26T01:33:16.138Z,17.6
2017-06-26T01:33:38.132Z,17.6
2017-06-26T01:33:58.641Z,17.5
2017-06-26T01:34:20.105Z,17.6
2017-06-26T01:34:41.561Z,17.6
2017-06-26T01:35:02.082Z,17.6
2017-06-26T01:35:22.609Z,17.6
2017-06-26T01:35:43.131Z,17.6
2017-06-26T01:36:03.663Z,17.6
2017-06-26T01:36:25.117Z,17.5
2017-06-26T01:36:45.648Z,17.5
2017-06-26T01:37:07.066Z,17.5
2017-06-26T01:37:27.586Z,17.6
2017-06-26T01:37:48.148Z,17.5
2017-06-26T01:38:09.635Z,17.5
2017-06-26T01:38:32.573Z,17.5
2017-06-26T01:38:53.629Z,17.5
2017-06-26T01:39:14.151Z,17.6
2017-06-26T01:39:34.662Z,17.5
2017-06-26T01:39:55.197Z,17.6
2017-06-26T01:40:15.727Z,17.6
2017-06-26T01:40:36.238Z,17.6
2017-06-26T01:40:56.754Z,17.6
2017-06-26T01:41:18.107Z,17.6
2017-06-26T01:41:38.641Z,17.7
2017-06-26T01:41:59.157Z,17.6
2017-06-26T01:42:19.683Z,17.6
2017-06-26T01:42:40.206Z,17.7
2017-06-26T01:43:00.721Z,17.7
2017-06-26T01:43:21.232Z,17.7
2017-06-26T01:43:41.742Z,17.7
2017-06-26T01:44:03.113Z,17.6
2017-06-26T01:44:23.631Z,17.6
2017-06-26T01:44:45.064Z,17.6
2017-06-26T01:45:06.562Z,17.6
2017-06-26T01:45:27.586Z,17.6
2017-06-26T01:45:48.094Z,17.7
2017-06-26T01:46:08.612Z,17.7
2017-06-26T01:46:29.135Z,17.7
2017-06-26T01:46:50.577Z,17.6
2017-06-26T01:47:11.082Z,17.7
2017-06-26T01:47:31.596Z,17.7
2017-06-26T01:47:52.105Z,17.7
2017-06-26T01:48:12.632Z,17.7
2017-06-26T01:48:33.157Z,17.7
2017-06-26T01:48:54.599Z,17.7
2017-06-26T01:49:15.150Z,17.8
2017-06-26T01:49:35.669Z,17.8
2017-06-26T01:49:56.187Z,17.8
2017-06-26T01:50:16.699Z,17.8
2017-06-26T01:50:37.223Z,17.8
2017-06-26T01:50:57.847Z,17.7
2017-06-26T01:51:20.070Z,17.8
2017-06-26T01:51:42.112Z,17.8
2017-06-26T01:52:02.621Z,17.7
2017-06-26T01:52:23.618Z,17.8
2017-06-26T01:52:44.138Z,17.8
2017-06-26T01:53:04.658Z,17.8
2017-06-26T01:53:25.179Z,17.8
2017-06-26T01:53:46.654Z,17.8
2017-06-26T01:54:08.088Z,17.7
2017-06-26T01:54:28.623Z,17.8
2017-06-26T01:54:49.162Z,17.9
2017-06-26T01:55:09.685Z,17.8
2017-06-26T01:55:32.072Z,17.9
2017-06-26T01:55:53.114Z,17.8
2017-06-26T01:56:14.610Z,17.8
2017-06-26T01:56:35.131Z,17.8
2017-06-26T01:56:55.650Z,17.8
2017-06-26T01:57:16.173Z,17.8
2017-06-26T01:57:36.688Z,17.9
2017-06-26T01:57:57.210Z,17.9
2017-06-26T01:58:17.733Z,17.8
2017-06-26T01:58:39.139Z,17.8
2017-06-26T01:58:59.655Z,17.8
2017-06-26T01:59:20.172Z,17.9
2017-06-26T01:59:40.695Z,17.8
2017-06-26T02:00:01.243Z,17.8
2017-06-26T02:00:21.758Z,17.7
2017-06-26T02:00:42.306Z,17.8
2017-06-26T02:01:03.576Z,17.7
2017-06-26T02:01:25.100Z,17.7
2017-06-26T02:01:45.626Z,17.7
2017-06-26T02:02:06.138Z,17.7
2017-06-26T02:02:28.154Z,17.7
2017-06-26T02:02:49.626Z,17.6
2017-06-26T02:03:10.147Z,17.7
2017-06-26T02:03:30.688Z,17.6
2017-06-26T02:03:51.197Z,17.6
2017-06-26T02:04:12.642Z,17.5
2017-06-26T02:04:33.148Z,17.6
2017-06-26T02:04:53.654Z,17.6
2017-06-26T02:05:14.166Z,17.7
2017-06-26T02:05:34.717Z,17.7
2017-06-26T02:05:55.231Z,17.6
2017-06-26T02:06:15.748Z,17.7
2017-06-26T02:06:36.280Z,17.6
2017-06-26T02:06:57.598Z,17.6
2017-06-26T02:07:18.104Z,17.5
2017-06-26T02:07:38.632Z,17.6
2017-06-26T02:07:59.144Z,17.6
2017-06-26T02:08:19.675Z,17.6
2017-06-26T02:08:40.203Z,17.6
2017-06-26T02:09:00.727Z,17.6
2017-06-26T02:09:21.244Z,17.6
2017-06-26T02:09:42.629Z,17.6
2017-06-26T02:10:03.169Z,17.6
2017-06-26T02:10:23.715Z,17.6
2017-06-26T02:10:44.242Z,17.6
2017-06-26T02:11:04.783Z,17.5
2017-06-26T02:11:26.162Z,17.6
2017-06-26T02:11:47.634Z,17.6
2017-06-26T02:12:08.630Z,17.6
2017-06-26T02:12:30.083Z,17.6
2017-06-26T02:12:50.596Z,17.6
2017-06-26T02:13:11.123Z,17.6
2017-06-26T02:13:31.663Z,17.6
2017-06-26T02:13:53.143Z,17.6
2017-06-26T02:14:13.660Z,17.6
2017-06-26T02:14:34.187Z,17.6
2017-06-26T02:14:55.606Z,17.6
2017-06-26T02:15:16.121Z,17.6
2017-06-26T02:15:36.641Z,17.6
2017-06-26T02:15:58.129Z,17.7
2017-06-26T02:16:19.137Z,17.6
2017-06-26T02:16:40.621Z,17.7
2017-06-26T02:17:01.170Z,17.7
2017-06-26T02:17:21.685Z,17.7
2017-06-26T02:17:42.201Z,17.7
2017-06-26T02:18:02.706Z,17.7
2017-06-26T02:18:24.133Z,17.7
2017-06-26T02:18:44.656Z,17.7
2017-06-26T02:19:05.656Z,17.7
2017-06-26T02:19:26.177Z,17.7
2017-06-26T02:19:48.659Z,17.7
2017-06-26T02:20:09.174Z,17.7
2017-06-26T02:20:29.692Z,17.7
2017-06-26T02:20:50.213Z,17.7
2017-06-26T02:21:10.752Z,17.7
2017-06-26T02:21:31.288Z,17.7
2017-06-26T02:21:52.591Z,17.7
2017-06-26T02:22:13.121Z,17.7
2017-06-26T02:22:33.640Z,17.7
2017-06-26T02:22:54.164Z,17.7
2017-06-26T02:23:16.159Z,17.7
2017-06-26T02:23:38.591Z,17.6
2017-06-26T02:24:00.596Z,17.6
2017-06-26T02:24:22.616Z,17.6
2017-06-26T02:24:43.133Z,17.6
2017-06-26T02:25:04.671Z,17.6
2017-06-26T02:25:25.198Z,17.7
2017-06-26T02:25:45.724Z,17.6
2017-06-26T02:26:06.231Z,17.6
2017-06-26T02:26:26.758Z,17.6
2017-06-26T02:26:47.274Z,17.6
2017-06-26T02:27:07.782Z,17.7
2017-06-26T02:27:29.139Z,17.6
2017-06-26T02:27:50.615Z,17.6
2017-06-26T02:28:12.116Z,17.7
2017-06-26T02:28:33.612Z,17.6
2017-06-26T02:28:54.157Z,17.6
2017-06-26T02:29:14.676Z,17.6
2017-06-26T02:29:35.189Z,17.5
2017-06-26T02:29:55.746Z,17.6
2017-06-26T02:30:16.265Z,17.6
2017-06-26T02:30:36.796Z,17.7
2017-06-26T02:30:58.608Z,17.6
2017-06-26T02:31:19.144Z,17.7
2017-06-26T02:31:39.667Z,17.6
2017-06-26T02:32:00.186Z,17.6
2017-06-26T02:32:20.761Z,17.6
2017-06-26T02:32:42.162Z,17.6
2017-06-26T02:33:02.680Z,17.5
2017-06-26T02:33:24.147Z,17.6
2017-06-26T02:33:44.673Z,17.5
2017-06-26T02:34:05.244Z,17.5
2017-06-26T02:34:28.101Z,17.4
2017-06-26T02:34:49.114Z,17.5
2017-06-26T02:35:11.101Z,17.4
2017-06-26T02:35:31.610Z,17.4
2017-06-26T02:35:52.132Z,17.4
2017-06-26T02:36:12.660Z,17.4
2017-06-26T02:36:33.172Z,17.4
2017-06-26T02:36:54.658Z,17.4
2017-06-26T02:37:15.169Z,17.4
2017-06-26T02:37:35.687Z,17.3
2017-06-26T02:37:56.210Z,17.4
2017-06-26T02:38:16.745Z,17.4
2017-06-26T02:38:37.265Z,17.3
2017-06-26T02:38:57.783Z,17.2
2017-06-26T02:39:19.230Z,17.3
2017-06-26T02:39:39.753Z,17.2
2017-06-26T02:40:01.171Z,17.2
2017-06-26T02:40:21.685Z,17.2
2017-06-26T02:40:42.226Z,17.3
2017-06-26T02:41:02.744Z,17.2
2017-06-26T02:41:24.161Z,17.2
2017-06-26T02:41:45.659Z,17.2
2017-06-26T02:42:07.606Z,17.3
2017-06-26T02:42:28.135Z,17.3
2017-06-26T02:42:49.648Z,17.3
2017-06-26T02:43:10.169Z,17.3
2017-06-26T02:43:30.693Z,17.2
2017-06-26T02:43:51.225Z,17.2
2017-06-26T02:44:11.742Z,17.2
2017-06-26T02:44:33.174Z,17.2
2017-06-26T02:44:53.707Z,17.2
2017-06-26T02:45:15.160Z,17.2
2017-06-26T02:45:36.179Z,17.1
2017-06-26T02:45:56.685Z,17.2
2017-06-26T02:46:17.243Z,17.1
2017-06-26T02:46:38.609Z,17.1
2017-06-26T02:46:59.123Z,17
2017-06-26T02:47:19.659Z,17.1
2017-06-26T02:47:40.225Z,17.1
2017-06-26T02:48:02.112Z,17
2017-06-26T02:48:23.147Z,17
2017-06-26T02:48:43.674Z,17
2017-06-26T02:49:04.179Z,17
2017-06-26T02:49:25.616Z,17.1
2017-06-26T02:49:46.152Z,17
2017-06-26T02:50:07.642Z,17
2017-06-26T02:50:28.163Z,17
2017-06-26T02:50:48.693Z,17.1
2017-06-26T02:51:09.221Z,17
2017-06-26T02:51:29.746Z,17
2017-06-26T02:51:50.262Z,17
2017-06-26T02:52:10.788Z,17
2017-06-26T02:52:31.309Z,17
2017-06-26T02:52:51.838Z,17
2017-06-26T02:53:13.133Z,17
2017-06-26T02:53:33.665Z,17.1
2017-06-26T02:53:54.183Z,17
2017-06-26T02:54:14.716Z,16.9
2017-06-26T02:54:35.253Z,17
2017-06-26T02:54:55.763Z,17
2017-06-26T02:55:17.115Z,17
2017-06-26T02:55:38.163Z,16.9
2017-06-26T02:55:58.679Z,16.9
2017-06-26T02:56:19.212Z,16.9
2017-06-26T02:56:39.725Z,16.8
2017-06-26T02:57:00.236Z,16.9
2017-06-26T02:57:20.752Z,16.8
2017-06-26T02:57:41.293Z,16.9
2017-06-26T02:58:01.813Z,17
2017-06-26T02:58:22.328Z,16.9
2017-06-26T02:58:42.851Z,16.9
2017-06-26T02:59:03.375Z,16.9
2017-06-26T02:59:23.904Z,16.9
2017-06-26T02:59:45.169Z,16.9
2017-06-26T03:00:05.714Z,17
2017-06-26T03:00:26.226Z,17
2017-06-26T03:00:46.756Z,17
2017-06-26T03:01:07.284Z,17
2017-06-26T03:01:28.621Z,17
2017-06-26T03:01:49.155Z,17
2017-06-26T03:02:09.703Z,16.9
2017-06-26T03:02:30.231Z,16.9
2017-06-26T03:02:50.752Z,16.9
2017-06-26T03:03:11.281Z,16.9
2017-06-26T03:03:31.799Z,16.9
2017-06-26T03:03:53.165Z,17
2017-06-26T03:04:13.715Z,17
2017-06-26T03:04:34.233Z,17
2017-06-26T03:04:54.792Z,17
2017-06-26T03:05:16.045Z,16.9
2017-06-26T03:05:36.601Z,17
2017-06-26T03:05:57.138Z,17
2017-06-26T03:06:18.178Z,17
2017-06-26T03:06:38.720Z,17
2017-06-26T03:06:59.254Z,16.9
2017-06-26T03:07:19.805Z,16.9
2017-06-26T03:07:40.339Z,16.9
2017-06-26T03:08:00.890Z,16.9
2017-06-26T03:08:21.441Z,16.8
2017-06-26T03:08:41.996Z,16.9
2017-06-26T03:09:03.148Z,16.8
2017-06-26T03:09:24.181Z,16.9
2017-06-26T03:09:44.715Z,16.8
2017-06-26T03:10:05.260Z,16.9
2017-06-26T03:10:25.796Z,16.9
2017-06-26T03:10:46.333Z,16.9
2017-06-26T03:11:06.870Z,16.8
2017-06-26T03:11:27.388Z,16.8
2017-06-26T03:11:47.896Z,16.9
2017-06-26T03:12:09.194Z,16.9
2017-06-26T03:12:29.739Z,16.9
2017-06-26T03:12:50.302Z,16.9
2017-06-26T03:13:10.831Z,16.9
2017-06-26T03:13:31.375Z,16.9
2017-06-26T03:13:51.906Z,16.9
2017-06-26T03:14:12.473Z,16.9
2017-06-26T03:14:33.016Z,16.9
2017-06-26T03:14:54.366Z,16.9
2017-06-26T03:15:16.667Z,16.9
2017-06-26T03:15:37.191Z,16.9
2017-06-26T03:15:57.698Z,16.8
2017-06-26T03:16:18.235Z,16.9
2017-06-26T03:16:38.792Z,17
2017-06-26T03:17:00.639Z,16.9
2017-06-26T03:17:21.153Z,16.9
2017-06-26T03:17:41.674Z,16.9
2017-06-26T03:18:02.689Z,16.8
2017-06-26T03:18:24.165Z,17
2017-06-26T03:18:44.687Z,16.8
2017-06-26T03:19:05.227Z,16.9
2017-06-26T03:19:25.733Z,16.8
2017-06-26T03:19:46.252Z,16.9
2017-06-26T03:20:06.778Z,16.9
2017-06-26T03:20:27.302Z,16.9
2017-06-26T03:20:47.839Z,17
2017-06-26T03:21:08.365Z,17
2017-06-26T03:21:28.915Z,17
2017-06-26T03:21:51.180Z,17
2017-06-26T03:22:12.637Z,17
2017-06-26T03:22:33.162Z,17
2017-06-26T03:22:53.684Z,17
2017-06-26T03:23:14.247Z,17
2017-06-26T03:23:34.830Z,17
2017-06-26T03:23:55.389Z,17
2017-06-26T03:24:15.923Z,17
2017-06-26T03:24:37.192Z,17
2017-06-26T03:24:58.267Z,17
2017-06-26T03:25:18.783Z,17.1
2017-06-26T03:25:39.305Z,17
2017-06-26T03:25:59.836Z,17
2017-06-26T03:26:20.365Z,17
2017-06-26T03:26:40.889Z,17
2017-06-26T03:27:02.178Z,17.1
2017-06-26T03:27:22.713Z,17
2017-06-26T03:27:43.237Z,17.1
2017-06-26T03:28:04.685Z,17
2017-06-26T03:28:25.200Z,17.1
2017-06-26T03:28:45.724Z,17
2017-06-26T03:29:06.352Z,17.1
2017-06-26T03:29:26.876Z,17
2017-06-26T03:29:47.398Z,17.1
2017-06-26T03:30:08.684Z,17.1
2017-06-26T03:30:29.221Z,16.9
2017-06-26T03:30:49.751Z,17
2017-06-26T03:31:10.269Z,17.2
2017-06-26T03:31:30.803Z,17.1
2017-06-26T03:31:51.319Z,17.1
2017-06-26T03:32:11.860Z,17
2017-06-26T03:32:33.739Z,17.2
2017-06-26T03:32:55.221Z,17.2
2017-06-26T03:33:16.663Z,17.1
2017-06-26T03:33:37.170Z,17.1
2017-06-26T03:33:58.696Z,17.1
2017-06-26T03:34:19.725Z,17.1
2017-06-26T03:34:40.263Z,17.1
2017-06-26T03:35:00.786Z,17.1
2017-06-26T03:35:21.317Z,17.1
2017-06-26T03:35:41.843Z,17.1
2017-06-26T03:36:02.368Z,17.1
2017-06-26T03:36:23.689Z,17.1
2017-06-26T03:36:44.217Z,17.2
2017-06-26T03:37:04.752Z,17.2
2017-06-26T03:37:25.281Z,17.1
2017-06-26T03:37:45.802Z,17.2
2017-06-26T03:38:06.318Z,17.2
2017-06-26T03:38:28.211Z,17.2
2017-06-26T03:38:49.201Z,17.1
2017-06-26T03:39:10.680Z,17.2
2017-06-26T03:39:32.166Z,17.2
2017-06-26T03:39:52.696Z,17.1
2017-06-26T03:40:14.176Z,17.2
2017-06-26T03:40:34.708Z,17.1
2017-06-26T03:40:56.649Z,17.2
2017-06-26T03:41:17.767Z,17.2
2017-06-26T03:41:39.203Z,17.2
2017-06-26T03:41:59.724Z,17.2
2017-06-26T03:42:20.251Z,17.3
2017-06-26T03:42:40.772Z,17.2
2017-06-26T03:43:03.176Z,17.2
2017-06-26T03:43:24.692Z,17.2
2017-06-26T03:43:45.705Z,17.3
2017-06-26T03:44:06.231Z,17.3
2017-06-26T03:44:26.740Z,17.3
2017-06-26T03:44:47.269Z,17.3
2017-06-26T03:45:07.802Z,17.3
2017-06-26T03:45:28.319Z,17.2
2017-06-26T03:45:48.834Z,17.3
2017-06-26T03:46:09.368Z,17.2
2017-06-26T03:46:29.890Z,17.1
2017-06-26T03:46:50.423Z,17.1
2017-06-26T03:47:11.656Z,17.1
2017-06-26T03:47:32.213Z,17.2
2017-06-26T03:47:52.735Z,17.2
2017-06-26T03:48:14.164Z,17.2
2017-06-26T03:48:34.688Z,17.2
2017-06-26T03:48:55.229Z,17.1
2017-06-26T03:49:15.743Z,17.2
2017-06-26T03:49:36.259Z,17.2
2017-06-26T03:49:58.663Z,17.3
2017-06-26T03:50:21.165Z,17.3
2017-06-26T03:50:42.192Z,17.2
2017-06-26T03:51:03.227Z,17.2
2017-06-26T03:51:23.764Z,17.2
2017-06-26T03:51:45.280Z,17.3
2017-06-26T03:52:06.706Z,17.2
2017-06-26T03:52:27.230Z,17.2
2017-06-26T03:52:47.775Z,17.2
2017-06-26T03:53:08.334Z,17.3
2017-06-26T03:53:28.856Z,17.3
2017-06-26T03:53:49.388Z,17.3
2017-06-26T03:54:09.916Z,17.3
2017-06-26T03:54:30.447Z,17.4
2017-06-26T03:54:50.970Z,17.3
2017-06-26T03:55:11.499Z,17.4
2017-06-26T03:55:32.724Z,17.4
2017-06-26T03:55:55.741Z,17.4
2017-06-26T03:56:16.272Z,17.4
2017-06-26T03:56:37.664Z,17.4
2017-06-26T03:56:58.243Z,17.4
2017-06-26T03:57:18.772Z,17.4
2017-06-26T03:57:39.303Z,17.5
2017-06-26T03:57:59.831Z,17.4
2017-06-26T03:58:20.357Z,17.5
2017-06-26T03:58:40.889Z,17.5
2017-06-26T03:59:01.431Z,17.5
2017-06-26T03:59:21.955Z,17.6
2017-06-26T03:59:42.498Z,17.6
2017-06-26T04:00:03.043Z,17.6
2017-06-26T04:00:23.612Z,17.6
2017-06-26T04:00:44.134Z,17.6
2017-06-26T04:01:04.697Z,17.7
2017-06-26T04:01:25.235Z,17.6
2017-06-26T04:01:45.757Z,17.6
2017-06-26T04:02:06.288Z,17.6
2017-06-26T04:02:26.825Z,17.6
2017-06-26T04:02:47.360Z,17.6
2017-06-26T04:03:07.892Z,17.6
2017-06-26T04:03:29.187Z,17.7
2017-06-26T04:03:49.736Z,17.6
2017-06-26T04:04:10.281Z,17.7
2017-06-26T04:04:30.802Z,17.6
2017-06-26T04:04:51.355Z,17.7
2017-06-26T04:05:11.897Z,17.7
2017-06-26T04:05:32.423Z,17.7
2017-06-26T04:05:53.708Z,17.7
2017-06-26T04:06:14.246Z,17.7
2017-06-26T04:06:34.782Z,17.7
2017-06-26T04:06:55.304Z,17.8
2017-06-26T04:07:15.864Z,17.7
2017-06-26T04:07:36.382Z,17.7
2017-06-26T04:07:56.917Z,17.8
2017-06-26T04:08:18.221Z,17.7
2017-06-26T04:08:38.752Z,17.7
2017-06-26T04:08:59.290Z,17.8
2017-06-26T04:09:19.834Z,17.8
2017-06-26T04:09:40.353Z,17.8
2017-06-26T04:10:00.915Z,17.8
2017-06-26T04:10:21.443Z,17.8
2017-06-26T04:10:41.982Z,17.8
2017-06-26T04:11:02.497Z,17.8
2017-06-26T04:11:23.023Z,17.9
2017-06-26T04:11:45.171Z,17.8
2017-06-26T04:12:05.714Z,17.8
2017-06-26T04:12:27.216Z,17.9
2017-06-26T04:12:47.757Z,18
2017-06-26T04:13:08.290Z,17.9
2017-06-26T04:13:29.690Z,17.9
2017-06-26T04:13:50.737Z,17.9
2017-06-26T04:14:11.266Z,17.9
2017-06-26T04:14:32.752Z,17.9
2017-06-26T04:14:54.232Z,17.9
2017-06-26T04:15:14.759Z,18
2017-06-26T04:15:35.292Z,17.9
2017-06-26T04:15:55.842Z,17.9
2017-06-26T04:16:16.405Z,17.9
2017-06-26T04:16:38.675Z,17.9
2017-06-26T04:16:59.202Z,17.9
2017-06-26T04:17:19.738Z,17.9
2017-06-26T04:17:40.266Z,17.9
2017-06-26T04:18:02.678Z,18
2017-06-26T04:18:23.217Z,17.9
2017-06-26T04:18:43.760Z,17.9
2017-06-26T04:19:04.313Z,17.9
2017-06-26T04:19:24.829Z,17.9
2017-06-26T04:19:45.382Z,18
2017-06-26T04:20:06.722Z,17.9
2017-06-26T04:20:27.245Z,17.9
2017-06-26T04:20:47.761Z,17.9
2017-06-26T04:21:08.286Z,17.9
2017-06-26T04:21:28.825Z,18
2017-06-26T04:21:49.402Z,18
2017-06-26T04:22:09.940Z,18
2017-06-26T04:22:30.463Z,17.9
2017-06-26T04:22:51.744Z,18
2017-06-26T04:23:12.308Z,18
2017-06-26T04:23:32.841Z,18
2017-06-26T04:23:53.373Z,18
2017-06-26T04:24:13.920Z,18
2017-06-26T04:24:35.206Z,18
2017-06-26T04:24:55.763Z,18
2017-06-26T04:25:16.292Z,18
2017-06-26T04:25:36.823Z,18.1
2017-06-26T04:25:57.364Z,18
2017-06-26T04:26:19.301Z,18.1
2017-06-26T04:26:40.729Z,18.1
2017-06-26T04:27:01.279Z,18
2017-06-26T04:27:21.824Z,18
2017-06-26T04:27:43.242Z,18
2017-06-26T04:28:03.777Z,18
2017-06-26T04:28:24.364Z,18
2017-06-26T04:28:45.739Z,18
2017-06-26T04:29:06.284Z,18.1
2017-06-26T04:29:26.809Z,18.1
2017-06-26T04:29:48.301Z,18.1
2017-06-26T04:30:10.204Z,18.1
2017-06-26T04:30:30.762Z,18.1
2017-06-26T04:30:51.320Z,18
2017-06-26T04:31:12.820Z,18.1
2017-06-26T04:31:33.352Z,18.1
2017-06-26T04:31:53.876Z,18.1
2017-06-26T04:32:15.270Z,18
2017-06-26T04:32:37.733Z,18
2017-06-26T04:33:00.184Z,18
2017-06-26T04:33:22.197Z,18
2017-06-26T04:33:42.750Z,18.1
2017-06-26T04:34:04.200Z,18.1
2017-06-26T04:34:24.742Z,18.1
2017-06-26T04:34:45.267Z,18.1
2017-06-26T04:35:06.740Z,18
2017-06-26T04:35:27.259Z,18
2017-06-26T04:35:48.688Z,18.1
2017-06-26T04:36:09.212Z,18.1
2017-06-26T04:36:30.691Z,18
2017-06-26T04:36:51.223Z,18.1
2017-06-26T04:37:11.747Z,18
2017-06-26T04:37:32.270Z,18
2017-06-26T04:37:53.717Z,18
2017-06-26T04:38:14.264Z,18.1
2017-06-26T04:38:35.252Z,18
2017-06-26T04:38:56.258Z,18
2017-06-26T04:39:16.782Z,18
2017-06-26T04:39:37.307Z,18